sensor_id;sensor_type;location;lat;lon;timestamp;P1;durP1;ratioP1;P2;durP2;ratioP2
77520;SDS011;66633;47.628;19.158;2024-03-08T00:02:23;23.03;;;12.10;;
77520;SDS011;66633;47.628;19.158;2024-03-08T00:04:48;24.35;;;12.50;;
77520;SDS011;66633;47.628;19.158;2024-03-08T00:07:14;30.65;;;13.93;;
77520;SDS011;66633;47.628;19.158;2024-03-08T00:09:39;24.88;;;12.63;;
77520;SDS011;66633;47.628;19.158;2024-03-08T00:12:05;26.65;;;13.32;;
77520;SDS011;66633;47.628;19.158;2024-03-08T00:14:31;29.02;;;13.40;;
77520;SDS011;66633;47.628;19.158;2024-03-08T00:16:57;26.55;;;11.65;;
77520;SDS011;66633;47.628;19.158;2024-03-08T00:19:22;24.10;;;11.80;;
77520;SDS011;66633;47.628;19.158;2024-03-08T00:21:47;23.77;;;11.03;;
77520;SDS011;66633;47.628;19.158;2024-03-08T00:24:12;27.33;;;12.70;;
77520;SDS011;66633;47.628;19.158;2024-03-08T00:26:38;23.40;;;11.60;;
77520;SDS011;66633;47.628;19.158;2024-03-08T00:29:03;23.33;;;11.80;;
77520;SDS011;66633;47.628;19.158;2024-03-08T00:31:28;26.67;;;12.67;;
77520;SDS011;66633;47.628;19.158;2024-03-08T00:33:56;27.17;;;12.73;;
77520;SDS011;66633;47.628;19.158;2024-03-08T00:36:21;24.95;;;11.75;;
77520;SDS011;66633;47.628;19.158;2024-03-08T00:38:47;25.92;;;12.43;;
77520;SDS011;66633;47.628;19.158;2024-03-08T00:41:12;24.98;;;12.23;;
77520;SDS011;66633;47.628;19.158;2024-03-08T00:43:38;24.15;;;12.15;;
77520;SDS011;66633;47.628;19.158;2024-03-08T00:46:04;24.48;;;11.50;;
77520;SDS011;66633;47.628;19.158;2024-03-08T00:48:30;22.40;;;11.32;;
77520;SDS011;66633;47.628;19.158;2024-03-08T00:50:56;27.23;;;13.23;;
77520;SDS011;66633;47.628;19.158;2024-03-08T00:53:21;25.92;;;13.77;;
77520;SDS011;66633;47.628;19.158;2024-03-08T00:55:46;24.50;;;11.43;;
77520;SDS011;66633;47.628;19.158;2024-03-08T00:58:12;24.85;;;11.93;;
77520;SDS011;66633;47.628;19.158;2024-03-08T01:00:37;24.08;;;11.63;;
77520;SDS011;66633;47.628;19.158;2024-03-08T01:03:04;24.92;;;12.10;;
77520;SDS011;66633;47.628;19.158;2024-03-08T01:05:30;22.60;;;10.18;;
77520;SDS011;66633;47.628;19.158;2024-03-08T01:07:55;26.40;;;12.95;;
77520;SDS011;66633;47.628;19.158;2024-03-08T01:10:20;22.90;;;12.33;;
77520;SDS011;66633;47.628;19.158;2024-03-08T01:12:45;25.57;;;12.50;;
77520;SDS011;66633;47.628;19.158;2024-03-08T01:15:11;23.70;;;10.68;;
77520;SDS011;66633;47.628;19.158;2024-03-08T01:17:36;25.15;;;11.43;;
77520;SDS011;66633;47.628;19.158;2024-03-08T01:20:02;25.08;;;11.75;;
77520;SDS011;66633;47.628;19.158;2024-03-08T01:22:28;25.58;;;12.18;;
77520;SDS011;66633;47.628;19.158;2024-03-08T01:24:55;23.02;;;11.27;;
77520;SDS011;66633;47.628;19.158;2024-03-08T01:27:20;23.63;;;12.88;;
77520;SDS011;66633;47.628;19.158;2024-03-08T01:29:45;24.75;;;12.55;;
77520;SDS011;66633;47.628;19.158;2024-03-08T01:32:11;22.88;;;11.88;;
77520;SDS011;66633;47.628;19.158;2024-03-08T01:34:37;26.08;;;12.32;;
77520;SDS011;66633;47.628;19.158;2024-03-08T01:37:02;23.25;;;11.90;;
77520;SDS011;66633;47.628;19.158;2024-03-08T01:39:27;27.08;;;12.20;;
77520;SDS011;66633;47.628;19.158;2024-03-08T01:41:53;24.57;;;12.40;;
77520;SDS011;66633;47.628;19.158;2024-03-08T01:44:19;25.05;;;12.32;;
77520;SDS011;66633;47.628;19.158;2024-03-08T01:46:44;22.55;;;11.15;;
77520;SDS011;66633;47.628;19.158;2024-03-08T01:49:10;29.77;;;14.43;;
77520;SDS011;66633;47.628;19.158;2024-03-08T01:51:36;26.83;;;12.77;;
77520;SDS011;66633;47.628;19.158;2024-03-08T01:54:02;24.85;;;11.93;;
77520;SDS011;66633;47.628;19.158;2024-03-08T01:56:28;21.50;;;11.57;;
77520;SDS011;66633;47.628;19.158;2024-03-08T01:58:54;24.95;;;12.02;;
77520;SDS011;66633;47.628;19.158;2024-03-08T02:01:19;25.38;;;11.95;;
77520;SDS011;66633;47.628;19.158;2024-03-08T02:03:44;28.67;;;13.23;;
77520;SDS011;66633;47.628;19.158;2024-03-08T02:06:12;25.70;;;13.00;;
77520;SDS011;66633;47.628;19.158;2024-03-08T02:08:39;29.00;;;12.25;;
77520;SDS011;66633;47.628;19.158;2024-03-08T02:11:06;23.75;;;12.00;;
77520;SDS011;66633;47.628;19.158;2024-03-08T02:13:32;24.45;;;12.68;;
77520;SDS011;66633;47.628;19.158;2024-03-08T02:15:58;24.80;;;13.07;;
77520;SDS011;66633;47.628;19.158;2024-03-08T02:18:27;25.48;;;11.80;;
77520;SDS011;66633;47.628;19.158;2024-03-08T02:20:57;21.17;;;10.88;;
77520;SDS011;66633;47.628;19.158;2024-03-08T02:23:23;24.98;;;13.35;;
77520;SDS011;66633;47.628;19.158;2024-03-08T02:25:50;22.90;;;11.43;;
77520;SDS011;66633;47.628;19.158;2024-03-08T02:28:15;27.42;;;11.90;;
77520;SDS011;66633;47.628;19.158;2024-03-08T02:30:41;26.40;;;12.98;;
77520;SDS011;66633;47.628;19.158;2024-03-08T02:33:07;26.77;;;11.45;;
77520;SDS011;66633;47.628;19.158;2024-03-08T02:35:34;27.95;;;12.95;;
77520;SDS011;66633;47.628;19.158;2024-03-08T02:37:59;26.50;;;12.60;;
77520;SDS011;66633;47.628;19.158;2024-03-08T02:40:25;24.88;;;11.02;;
77520;SDS011;66633;47.628;19.158;2024-03-08T02:42:50;25.47;;;12.87;;
77520;SDS011;66633;47.628;19.158;2024-03-08T02:45:15;26.95;;;11.65;;
77520;SDS011;66633;47.628;19.158;2024-03-08T02:47:40;33.60;;;15.77;;
77520;SDS011;66633;47.628;19.158;2024-03-08T02:50:06;27.30;;;13.07;;
77520;SDS011;66633;47.628;19.158;2024-03-08T02:52:36;30.92;;;15.23;;
77520;SDS011;66633;47.628;19.158;2024-03-08T02:55:01;28.77;;;14.07;;
77520;SDS011;66633;47.628;19.158;2024-03-08T02:57:27;34.47;;;14.52;;
77520;SDS011;66633;47.628;19.158;2024-03-08T02:59:53;29.25;;;13.98;;
77520;SDS011;66633;47.628;19.158;2024-03-08T03:02:18;31.33;;;14.82;;
77520;SDS011;66633;47.628;19.158;2024-03-08T03:04:43;34.37;;;16.27;;
77520;SDS011;66633;47.628;19.158;2024-03-08T03:07:08;28.23;;;14.53;;
77520;SDS011;66633;47.628;19.158;2024-03-08T03:09:34;29.20;;;15.00;;
77520;SDS011;66633;47.628;19.158;2024-03-08T03:12:00;27.98;;;13.90;;
77520;SDS011;66633;47.628;19.158;2024-03-08T03:14:25;25.50;;;12.70;;
77520;SDS011;66633;47.628;19.158;2024-03-08T03:16:53;28.15;;;13.07;;
77520;SDS011;66633;47.628;19.158;2024-03-08T03:19:19;26.77;;;12.80;;
77520;SDS011;66633;47.628;19.158;2024-03-08T03:21:45;30.83;;;13.90;;
77520;SDS011;66633;47.628;19.158;2024-03-08T03:24:10;30.23;;;14.85;;
77520;SDS011;66633;47.628;19.158;2024-03-08T03:26:36;29.27;;;13.40;;
77520;SDS011;66633;47.628;19.158;2024-03-08T03:29:04;32.60;;;13.80;;
77520;SDS011;66633;47.628;19.158;2024-03-08T03:31:30;39.38;;;15.75;;
77520;SDS011;66633;47.628;19.158;2024-03-08T03:33:56;33.95;;;15.05;;
77520;SDS011;66633;47.628;19.158;2024-03-08T03:38:53;40.80;;;17.33;;
77520;SDS011;66633;47.628;19.158;2024-03-08T03:43:54;40.70;;;17.27;;
77520;SDS011;66633;47.628;19.158;2024-03-08T03:46:19;38.60;;;17.07;;
77520;SDS011;66633;47.628;19.158;2024-03-08T03:48:45;43.23;;;18.10;;
77520;SDS011;66633;47.628;19.158;2024-03-08T03:51:10;39.85;;;17.60;;
77520;SDS011;66633;47.628;19.158;2024-03-08T03:53:35;39.88;;;17.55;;
77520;SDS011;66633;47.628;19.158;2024-03-08T03:56:01;40.77;;;17.23;;
77520;SDS011;66633;47.628;19.158;2024-03-08T03:58:26;37.50;;;16.30;;
77520;SDS011;66633;47.628;19.158;2024-03-08T04:00:52;43.60;;;19.20;;
77520;SDS011;66633;47.628;19.158;2024-03-08T04:03:18;36.60;;;16.02;;
77520;SDS011;66633;47.628;19.158;2024-03-08T04:05:44;39.73;;;16.83;;
77520;SDS011;66633;47.628;19.158;2024-03-08T04:08:11;37.72;;;17.00;;
77520;SDS011;66633;47.628;19.158;2024-03-08T04:10:36;36.13;;;15.60;;
77520;SDS011;66633;47.628;19.158;2024-03-08T04:13:01;37.97;;;16.52;;
77520;SDS011;66633;47.628;19.158;2024-03-08T04:15:27;37.20;;;17.20;;
77520;SDS011;66633;47.628;19.158;2024-03-08T04:17:53;39.83;;;16.65;;
77520;SDS011;66633;47.628;19.158;2024-03-08T04:20:18;40.80;;;17.13;;
77520;SDS011;66633;47.628;19.158;2024-03-08T04:22:44;40.13;;;16.13;;
77520;SDS011;66633;47.628;19.158;2024-03-08T04:25:14;44.17;;;18.58;;
77520;SDS011;66633;47.628;19.158;2024-03-08T04:27:39;42.58;;;18.48;;
77520;SDS011;66633;47.628;19.158;2024-03-08T04:30:05;41.92;;;17.45;;
77520;SDS011;66633;47.628;19.158;2024-03-08T04:32:33;46.75;;;20.40;;
77520;SDS011;66633;47.628;19.158;2024-03-08T04:34:58;40.92;;;17.52;;
77520;SDS011;66633;47.628;19.158;2024-03-08T04:37:26;43.67;;;19.08;;
77520;SDS011;66633;47.628;19.158;2024-03-08T04:39:51;42.47;;;18.80;;
77520;SDS011;66633;47.628;19.158;2024-03-08T04:42:16;39.78;;;18.15;;
77520;SDS011;66633;47.628;19.158;2024-03-08T04:44:43;38.58;;;17.13;;
77520;SDS011;66633;47.628;19.158;2024-03-08T04:47:08;38.38;;;17.38;;
77520;SDS011;66633;47.628;19.158;2024-03-08T04:49:35;41.08;;;17.77;;
77520;SDS011;66633;47.628;19.158;2024-03-08T04:52:01;42.53;;;17.92;;
77520;SDS011;66633;47.628;19.158;2024-03-08T04:54:27;40.78;;;16.90;;
77520;SDS011;66633;47.628;19.158;2024-03-08T04:56:52;43.53;;;19.85;;
77520;SDS011;66633;47.628;19.158;2024-03-08T04:59:18;47.05;;;20.33;;
77520;SDS011;66633;47.628;19.158;2024-03-08T05:01:44;49.70;;;21.17;;
77520;SDS011;66633;47.628;19.158;2024-03-08T05:04:09;50.33;;;21.10;;
77520;SDS011;66633;47.628;19.158;2024-03-08T05:06:34;44.60;;;18.40;;
77520;SDS011;66633;47.628;19.158;2024-03-08T05:09:01;40.90;;;17.30;;
77520;SDS011;66633;47.628;19.158;2024-03-08T05:11:31;43.58;;;18.52;;
77520;SDS011;66633;47.628;19.158;2024-03-08T05:13:56;37.87;;;17.63;;
77520;SDS011;66633;47.628;19.158;2024-03-08T05:16:23;49.75;;;20.27;;
77520;SDS011;66633;47.628;19.158;2024-03-08T05:18:49;44.25;;;19.08;;
77520;SDS011;66633;47.628;19.158;2024-03-08T05:21:16;45.53;;;18.52;;
77520;SDS011;66633;47.628;19.158;2024-03-08T05:23:45;54.20;;;21.23;;
77520;SDS011;66633;47.628;19.158;2024-03-08T05:26:10;45.00;;;19.40;;
77520;SDS011;66633;47.628;19.158;2024-03-08T05:28:35;43.80;;;17.85;;
77520;SDS011;66633;47.628;19.158;2024-03-08T05:31:01;48.00;;;21.63;;
77520;SDS011;66633;47.628;19.158;2024-03-08T05:33:26;42.83;;;18.50;;
77520;SDS011;66633;47.628;19.158;2024-03-08T05:35:51;45.47;;;20.83;;
77520;SDS011;66633;47.628;19.158;2024-03-08T05:38:18;48.83;;;21.30;;
77520;SDS011;66633;47.628;19.158;2024-03-08T05:40:45;48.67;;;19.10;;
77520;SDS011;66633;47.628;19.158;2024-03-08T05:43:10;47.57;;;19.23;;
77520;SDS011;66633;47.628;19.158;2024-03-08T05:45:36;42.10;;;18.70;;
77520;SDS011;66633;47.628;19.158;2024-03-08T05:48:02;42.57;;;18.23;;
77520;SDS011;66633;47.628;19.158;2024-03-08T05:50:27;40.73;;;17.10;;
77520;SDS011;66633;47.628;19.158;2024-03-08T05:52:52;46.63;;;19.63;;
77520;SDS011;66633;47.628;19.158;2024-03-08T05:55:17;40.60;;;19.33;;
77520;SDS011;66633;47.628;19.158;2024-03-08T05:57:42;43.10;;;17.83;;
77520;SDS011;66633;47.628;19.158;2024-03-08T06:00:09;40.75;;;18.13;;
77520;SDS011;66633;47.628;19.158;2024-03-08T06:02:36;43.97;;;19.75;;
77520;SDS011;66633;47.628;19.158;2024-03-08T06:05:05;43.97;;;19.00;;
77520;SDS011;66633;47.628;19.158;2024-03-08T06:07:31;43.33;;;18.00;;
77520;SDS011;66633;47.628;19.158;2024-03-08T06:09:57;40.45;;;17.35;;
77520;SDS011;66633;47.628;19.158;2024-03-08T06:12:23;44.60;;;19.60;;
77520;SDS011;66633;47.628;19.158;2024-03-08T06:14:53;45.88;;;19.40;;
77520;SDS011;66633;47.628;19.158;2024-03-08T06:17:19;40.80;;;17.58;;
77520;SDS011;66633;47.628;19.158;2024-03-08T06:19:44;43.23;;;18.17;;
77520;SDS011;66633;47.628;19.158;2024-03-08T06:22:10;44.45;;;19.08;;
77520;SDS011;66633;47.628;19.158;2024-03-08T06:24:35;42.08;;;17.48;;
77520;SDS011;66633;47.628;19.158;2024-03-08T06:27:02;46.70;;;19.60;;
77520;SDS011;66633;47.628;19.158;2024-03-08T06:29:27;43.97;;;18.93;;
77520;SDS011;66633;47.628;19.158;2024-03-08T06:31:53;45.75;;;18.60;;
77520;SDS011;66633;47.628;19.158;2024-03-08T06:34:18;47.67;;;20.88;;
77520;SDS011;66633;47.628;19.158;2024-03-08T06:36:43;51.00;;;20.53;;
77520;SDS011;66633;47.628;19.158;2024-03-08T06:39:09;50.42;;;20.55;;
77520;SDS011;66633;47.628;19.158;2024-03-08T06:41:37;47.83;;;20.53;;
77520;SDS011;66633;47.628;19.158;2024-03-08T06:44:02;49.83;;;20.33;;
77520;SDS011;66633;47.628;19.158;2024-03-08T06:46:27;42.83;;;19.08;;
77520;SDS011;66633;47.628;19.158;2024-03-08T06:48:53;53.42;;;20.95;;
77520;SDS011;66633;47.628;19.158;2024-03-08T06:51:18;54.77;;;21.70;;
77520;SDS011;66633;47.628;19.158;2024-03-08T06:53:44;53.47;;;21.70;;
77520;SDS011;66633;47.628;19.158;2024-03-08T06:56:09;51.58;;;20.75;;
77520;SDS011;66633;47.628;19.158;2024-03-08T06:58:34;50.72;;;22.50;;
77520;SDS011;66633;47.628;19.158;2024-03-08T07:01:00;54.40;;;22.33;;
77520;SDS011;66633;47.628;19.158;2024-03-08T07:03:29;49.97;;;22.17;;
77520;SDS011;66633;47.628;19.158;2024-03-08T07:05:54;56.40;;;22.30;;
77520;SDS011;66633;47.628;19.158;2024-03-08T07:08:23;54.03;;;22.25;;
77520;SDS011;66633;47.628;19.158;2024-03-08T07:10:48;55.10;;;24.23;;
77520;SDS011;66633;47.628;19.158;2024-03-08T07:13:15;53.25;;;23.50;;
77520;SDS011;66633;47.628;19.158;2024-03-08T07:15:40;48.13;;;21.17;;
77520;SDS011;66633;47.628;19.158;2024-03-08T07:18:05;53.47;;;23.57;;
77520;SDS011;66633;47.628;19.158;2024-03-08T07:20:30;50.13;;;22.92;;
77520;SDS011;66633;47.628;19.158;2024-03-08T07:22:56;51.15;;;24.98;;
77520;SDS011;66633;47.628;19.158;2024-03-08T07:25:22;50.10;;;21.60;;
77520;SDS011;66633;47.628;19.158;2024-03-08T07:27:47;46.85;;;20.25;;
77520;SDS011;66633;47.628;19.158;2024-03-08T07:30:13;47.70;;;22.17;;
77520;SDS011;66633;47.628;19.158;2024-03-08T07:32:58;45.90;;;20.23;;
77520;SDS011;66633;47.628;19.158;2024-03-08T07:35:23;44.60;;;19.30;;
77520;SDS011;66633;47.628;19.158;2024-03-08T07:37:48;47.87;;;22.07;;
77520;SDS011;66633;47.628;19.158;2024-03-08T07:40:14;45.97;;;20.90;;
77520;SDS011;66633;47.628;19.158;2024-03-08T07:42:41;46.08;;;20.58;;
77520;SDS011;66633;47.628;19.158;2024-03-08T07:45:06;43.03;;;19.10;;
77520;SDS011;66633;47.628;19.158;2024-03-08T07:47:33;41.20;;;18.50;;
77520;SDS011;66633;47.628;19.158;2024-03-08T07:50:01;42.75;;;18.65;;
77520;SDS011;66633;47.628;19.158;2024-03-08T07:52:26;41.10;;;17.83;;
77520;SDS011;66633;47.628;19.158;2024-03-08T07:54:52;44.25;;;19.70;;
77520;SDS011;66633;47.628;19.158;2024-03-08T07:57:18;44.42;;;19.30;;
77520;SDS011;66633;47.628;19.158;2024-03-08T07:59:44;43.50;;;18.55;;
77520;SDS011;66633;47.628;19.158;2024-03-08T08:02:09;47.30;;;20.98;;
77520;SDS011;66633;47.628;19.158;2024-03-08T08:04:35;39.08;;;18.10;;
77520;SDS011;66633;47.628;19.158;2024-03-08T08:07:00;42.47;;;18.07;;
77520;SDS011;66633;47.628;19.158;2024-03-08T08:09:26;44.42;;;19.90;;
77520;SDS011;66633;47.628;19.158;2024-03-08T08:11:59;47.67;;;19.83;;
77520;SDS011;66633;47.628;19.158;2024-03-08T08:14:24;45.17;;;20.03;;
77520;SDS011;66633;47.628;19.158;2024-03-08T08:16:49;43.17;;;19.13;;
77520;SDS011;66633;47.628;19.158;2024-03-08T08:19:17;43.97;;;19.77;;
77520;SDS011;66633;47.628;19.158;2024-03-08T08:21:42;41.78;;;19.27;;
77520;SDS011;66633;47.628;19.158;2024-03-08T08:24:08;41.40;;;17.33;;
77520;SDS011;66633;47.628;19.158;2024-03-08T08:26:33;38.28;;;17.48;;
77520;SDS011;66633;47.628;19.158;2024-03-08T08:28:59;44.42;;;21.67;;
77520;SDS011;66633;47.628;19.158;2024-03-08T08:31:24;44.85;;;20.25;;
77520;SDS011;66633;47.628;19.158;2024-03-08T08:33:50;42.78;;;19.42;;
77520;SDS011;66633;47.628;19.158;2024-03-08T08:36:15;45.57;;;20.77;;
77520;SDS011;66633;47.628;19.158;2024-03-08T08:38:40;45.72;;;22.33;;
77520;SDS011;66633;47.628;19.158;2024-03-08T08:41:09;48.50;;;21.67;;
77520;SDS011;66633;47.628;19.158;2024-03-08T08:43:34;46.92;;;22.17;;
77520;SDS011;66633;47.628;19.158;2024-03-08T08:45:59;42.57;;;19.60;;
77520;SDS011;66633;47.628;19.158;2024-03-08T08:48:24;45.23;;;21.80;;
77520;SDS011;66633;47.628;19.158;2024-03-08T08:50:50;45.13;;;19.50;;
77520;SDS011;66633;47.628;19.158;2024-03-08T08:53:17;43.00;;;20.27;;
77520;SDS011;66633;47.628;19.158;2024-03-08T08:55:43;45.13;;;20.90;;
77520;SDS011;66633;47.628;19.158;2024-03-08T08:58:10;44.88;;;20.52;;
77520;SDS011;66633;47.628;19.158;2024-03-08T09:00:36;45.45;;;20.50;;
77520;SDS011;66633;47.628;19.158;2024-03-08T09:03:01;44.90;;;19.73;;
77520;SDS011;66633;47.628;19.158;2024-03-08T09:05:27;50.55;;;22.08;;
77520;SDS011;66633;47.628;19.158;2024-03-08T09:07:52;47.37;;;20.43;;
77520;SDS011;66633;47.628;19.158;2024-03-08T09:10:18;46.92;;;19.90;;
77520;SDS011;66633;47.628;19.158;2024-03-08T09:12:43;47.47;;;20.98;;
77520;SDS011;66633;47.628;19.158;2024-03-08T09:15:09;47.83;;;20.30;;
77520;SDS011;66633;47.628;19.158;2024-03-08T09:17:36;47.88;;;20.75;;
77520;SDS011;66633;47.628;19.158;2024-03-08T09:20:01;49.03;;;22.63;;
77520;SDS011;66633;47.628;19.158;2024-03-08T09:22:29;47.00;;;21.15;;
77520;SDS011;66633;47.628;19.158;2024-03-08T09:24:54;45.15;;;20.10;;
77520;SDS011;66633;47.628;19.158;2024-03-08T09:27:20;50.57;;;20.37;;
77520;SDS011;66633;47.628;19.158;2024-03-08T09:29:45;44.67;;;19.17;;
77520;SDS011;66633;47.628;19.158;2024-03-08T09:32:10;49.47;;;20.83;;
77520;SDS011;66633;47.628;19.158;2024-03-08T09:34:36;53.03;;;21.67;;
77520;SDS011;66633;47.628;19.158;2024-03-08T09:37:02;48.47;;;21.05;;
77520;SDS011;66633;47.628;19.158;2024-03-08T09:39:29;50.65;;;21.05;;
77520;SDS011;66633;47.628;19.158;2024-03-08T09:41:54;44.72;;;20.63;;
77520;SDS011;66633;47.628;19.158;2024-03-08T09:44:20;46.97;;;20.52;;
77520;SDS011;66633;47.628;19.158;2024-03-08T09:46:45;47.30;;;20.33;;
77520;SDS011;66633;47.628;19.158;2024-03-08T09:49:12;50.63;;;22.13;;
77520;SDS011;66633;47.628;19.158;2024-03-08T09:51:38;43.65;;;18.55;;
77520;SDS011;66633;47.628;19.158;2024-03-08T09:54:05;43.72;;;19.13;;
77520;SDS011;66633;47.628;19.158;2024-03-08T09:56:37;45.95;;;20.10;;
77520;SDS011;66633;47.628;19.158;2024-03-08T09:59:05;40.10;;;18.35;;
77520;SDS011;66633;47.628;19.158;2024-03-08T10:01:36;46.17;;;20.17;;
77520;SDS011;66633;47.628;19.158;2024-03-08T10:04:03;44.97;;;21.25;;
77520;SDS011;66633;47.628;19.158;2024-03-08T10:06:29;44.97;;;22.00;;
77520;SDS011;66633;47.628;19.158;2024-03-08T10:08:54;43.83;;;19.87;;
77520;SDS011;66633;47.628;19.158;2024-03-08T10:11:20;45.90;;;19.13;;
77520;SDS011;66633;47.628;19.158;2024-03-08T10:13:46;46.55;;;20.70;;
77520;SDS011;66633;47.628;19.158;2024-03-08T10:16:12;47.55;;;20.55;;
77520;SDS011;66633;47.628;19.158;2024-03-08T10:18:38;45.78;;;19.00;;
77520;SDS011;66633;47.628;19.158;2024-03-08T10:21:03;45.28;;;21.13;;
77520;SDS011;66633;47.628;19.158;2024-03-08T10:23:29;45.35;;;19.52;;
77520;SDS011;66633;47.628;19.158;2024-03-08T10:25:55;44.75;;;19.45;;
77520;SDS011;66633;47.628;19.158;2024-03-08T10:28:23;52.75;;;22.45;;
77520;SDS011;66633;47.628;19.158;2024-03-08T10:30:49;43.47;;;19.83;;
77520;SDS011;66633;47.628;19.158;2024-03-08T10:33:15;45.20;;;20.67;;
77520;SDS011;66633;47.628;19.158;2024-03-08T10:35:40;44.60;;;19.58;;
77520;SDS011;66633;47.628;19.158;2024-03-08T10:38:05;48.33;;;21.20;;
77520;SDS011;66633;47.628;19.158;2024-03-08T10:40:35;45.15;;;20.52;;
77520;SDS011;66633;47.628;19.158;2024-03-08T10:43:04;47.92;;;22.50;;
77520;SDS011;66633;47.628;19.158;2024-03-08T10:45:34;48.15;;;21.58;;
77520;SDS011;66633;47.628;19.158;2024-03-08T10:50:34;44.45;;;19.00;;
77520;SDS011;66633;47.628;19.158;2024-03-08T10:53:00;78.50;;;36.28;;
77520;SDS011;66633;47.628;19.158;2024-03-08T10:55:26;50.50;;;23.60;;
77520;SDS011;66633;47.628;19.158;2024-03-08T10:57:53;45.15;;;20.58;;
77520;SDS011;66633;47.628;19.158;2024-03-08T11:00:19;44.40;;;21.17;;
77520;SDS011;66633;47.628;19.158;2024-03-08T11:02:51;47.08;;;20.85;;
77520;SDS011;66633;47.628;19.158;2024-03-08T11:08:03;39.55;;;18.30;;
77520;SDS011;66633;47.628;19.158;2024-03-08T11:10:29;39.58;;;19.08;;
77520;SDS011;66633;47.628;19.158;2024-03-08T11:12:54;37.33;;;16.93;;
77520;SDS011;66633;47.628;19.158;2024-03-08T11:15:19;40.73;;;19.70;;
77520;SDS011;66633;47.628;19.158;2024-03-08T11:17:48;40.47;;;18.60;;
77520;SDS011;66633;47.628;19.158;2024-03-08T11:20:19;38.70;;;17.25;;
77520;SDS011;66633;47.628;19.158;2024-03-08T11:22:48;43.00;;;19.85;;
77520;SDS011;66633;47.628;19.158;2024-03-08T11:28:11;43.83;;;19.38;;
77520;SDS011;66633;47.628;19.158;2024-03-08T11:31:28;56.45;;;26.33;;
77520;SDS011;66633;47.628;19.158;2024-03-08T11:33:29;43.65;;;21.05;;
77520;SDS011;66633;47.628;19.158;2024-03-08T11:38:40;42.92;;;19.65;;
77520;SDS011;66633;47.628;19.158;2024-03-08T11:41:05;41.10;;;18.92;;
77520;SDS011;66633;47.628;19.158;2024-03-08T11:43:30;39.20;;;20.08;;
77520;SDS011;66633;47.628;19.158;2024-03-08T11:46:07;37.37;;;17.93;;
77520;SDS011;66633;47.628;19.158;2024-03-08T11:48:33;33.08;;;15.88;;
77520;SDS011;66633;47.628;19.158;2024-03-08T11:51:01;36.13;;;17.02;;
77520;SDS011;66633;47.628;19.158;2024-03-08T11:53:29;31.27;;;15.77;;
77520;SDS011;66633;47.628;19.158;2024-03-08T11:55:55;31.80;;;16.40;;
77520;SDS011;66633;47.628;19.158;2024-03-08T11:58:29;35.95;;;16.67;;
77520;SDS011;66633;47.628;19.158;2024-03-08T12:01:02;31.07;;;15.50;;
77520;SDS011;66633;47.628;19.158;2024-03-08T12:03:27;33.33;;;16.88;;
77520;SDS011;66633;47.628;19.158;2024-03-08T12:05:57;32.10;;;15.45;;
77520;SDS011;66633;47.628;19.158;2024-03-08T12:08:22;34.53;;;18.27;;
77520;SDS011;66633;47.628;19.158;2024-03-08T12:10:47;30.47;;;16.03;;
77520;SDS011;66633;47.628;19.158;2024-03-08T12:13:12;38.33;;;18.23;;
77520;SDS011;66633;47.628;19.158;2024-03-08T12:15:39;38.50;;;17.77;;
77520;SDS011;66633;47.628;19.158;2024-03-08T12:18:04;41.40;;;18.37;;
77520;SDS011;66633;47.628;19.158;2024-03-08T12:20:30;35.03;;;16.52;;
77520;SDS011;66633;47.628;19.158;2024-03-08T12:22:55;39.58;;;19.48;;
77520;SDS011;66633;47.628;19.158;2024-03-08T12:25:27;43.40;;;20.00;;
77520;SDS011;66633;47.628;19.158;2024-03-08T12:27:52;43.05;;;19.38;;
77520;SDS011;66633;47.628;19.158;2024-03-08T12:30:19;44.00;;;21.17;;
77520;SDS011;66633;47.628;19.158;2024-03-08T12:32:50;40.08;;;18.75;;
77520;SDS011;66633;47.628;19.158;2024-03-08T12:35:18;39.53;;;19.42;;
77520;SDS011;66633;47.628;19.158;2024-03-08T12:37:43;40.60;;;18.57;;
77520;SDS011;66633;47.628;19.158;2024-03-08T12:40:09;44.28;;;20.67;;
77520;SDS011;66633;47.628;19.158;2024-03-08T12:42:34;44.38;;;21.00;;
77520;SDS011;66633;47.628;19.158;2024-03-08T12:45:00;40.38;;;21.00;;
77520;SDS011;66633;47.628;19.158;2024-03-08T12:47:26;42.80;;;20.52;;
77520;SDS011;66633;47.628;19.158;2024-03-08T12:49:53;38.25;;;18.52;;
77520;SDS011;66633;47.628;19.158;2024-03-08T12:52:19;32.15;;;18.35;;
77520;SDS011;66633;47.628;19.158;2024-03-08T12:54:44;35.70;;;18.20;;
77520;SDS011;66633;47.628;19.158;2024-03-08T12:57:09;37.27;;;18.30;;
77520;SDS011;66633;47.628;19.158;2024-03-08T12:59:34;38.07;;;18.83;;
77520;SDS011;66633;47.628;19.158;2024-03-08T13:02:00;31.98;;;17.13;;
77520;SDS011;66633;47.628;19.158;2024-03-08T13:04:25;33.25;;;17.85;;
77520;SDS011;66633;47.628;19.158;2024-03-08T13:06:50;34.17;;;17.75;;
77520;SDS011;66633;47.628;19.158;2024-03-08T13:09:16;34.63;;;18.38;;
77520;SDS011;66633;47.628;19.158;2024-03-08T13:11:44;33.03;;;17.67;;
77520;SDS011;66633;47.628;19.158;2024-03-08T13:14:10;39.33;;;19.17;;
77520;SDS011;66633;47.628;19.158;2024-03-08T13:16:35;40.60;;;20.17;;
77520;SDS011;66633;47.628;19.158;2024-03-08T13:19:00;43.13;;;20.85;;
77520;SDS011;66633;47.628;19.158;2024-03-08T13:21:26;40.07;;;19.60;;
77520;SDS011;66633;47.628;19.158;2024-03-08T13:23:51;40.50;;;19.73;;
77520;SDS011;66633;47.628;19.158;2024-03-08T13:26:18;40.83;;;19.92;;
77520;SDS011;66633;47.628;19.158;2024-03-08T13:28:45;38.90;;;20.02;;
77520;SDS011;66633;47.628;19.158;2024-03-08T13:31:10;41.65;;;20.67;;
77520;SDS011;66633;47.628;19.158;2024-03-08T13:33:38;38.90;;;19.53;;
77520;SDS011;66633;47.628;19.158;2024-03-08T13:36:11;43.55;;;21.75;;
77520;SDS011;66633;47.628;19.158;2024-03-08T13:38:44;41.33;;;21.02;;
77520;SDS011;66633;47.628;19.158;2024-03-08T13:41:12;42.83;;;21.52;;
77520;SDS011;66633;47.628;19.158;2024-03-08T13:43:48;38.30;;;19.45;;
77520;SDS011;66633;47.628;19.158;2024-03-08T13:46:18;39.53;;;20.15;;
77520;SDS011;66633;47.628;19.158;2024-03-08T13:48:43;41.53;;;20.60;;
77520;SDS011;66633;47.628;19.158;2024-03-08T13:51:09;41.80;;;21.63;;
77520;SDS011;66633;47.628;19.158;2024-03-08T13:53:40;37.28;;;20.63;;
77520;SDS011;66633;47.628;19.158;2024-03-08T13:56:05;38.83;;;20.17;;
77520;SDS011;66633;47.628;19.158;2024-03-08T13:58:31;39.25;;;21.10;;
77520;SDS011;66633;47.628;19.158;2024-03-08T14:00:56;40.70;;;20.70;;
77520;SDS011;66633;47.628;19.158;2024-03-08T14:03:22;45.70;;;21.52;;
77520;SDS011;66633;47.628;19.158;2024-03-08T14:05:48;40.05;;;20.85;;
77520;SDS011;66633;47.628;19.158;2024-03-08T14:08:14;42.83;;;20.48;;
77520;SDS011;66633;47.628;19.158;2024-03-08T14:10:41;40.25;;;20.02;;
77520;SDS011;66633;47.628;19.158;2024-03-08T14:13:07;39.90;;;19.58;;
77520;SDS011;66633;47.628;19.158;2024-03-08T14:15:33;39.28;;;20.77;;
77520;SDS011;66633;47.628;19.158;2024-03-08T14:18:03;44.67;;;21.10;;
77520;SDS011;66633;47.628;19.158;2024-03-08T14:20:31;40.47;;;21.40;;